Nanticoke — WDC4353 — position and weather

sailwx.info

Track history (hours):
 
Tides and Currents Weather Stations Pressure Air Temp Water Temp Dewpoint Dewpoint Depression Visibility Wind Speed Wind Dir Waves Ship Positions

Nanticoke

Owner: Vane Line Bunkering, Baltimore, MD. More information available from US FCC via Universal Licensing System and Coast Guard Vessel Documentation Center.

Last reported at 2017-Feb-26 07:33 UTC. Time now 2017-Feb-26 07:40 UTC.
Position N 40°40' W 074°05'.

Length 34 m; draft 4.7 m.

Type: Towing. MMSI: 367023480.

Date/timePositionNaut miles runAvg speedWind from/ knotsBaromVisibWave heightAir tempDewpointWater temp
2017-Feb-26 07:33N 40°40' W 074°05'0 0.0
2017-Feb-26 06:33N 40°40' W 074°05'0 0.0
2017-Feb-26 05:33N 40°40' W 074°05'0 0.0
2017-Feb-26 04:33N 40°40' W 074°05'0 0.0
2017-Feb-26 03:33N 40°40' W 074°05'2 1.7
2017-Feb-26 02:33N 40°40' W 074°03'4 4.2
2017-Feb-26 01:33N 40°41' W 074°08'0 0.4
2017-Feb-26 00:33N 40°41' W 074°09'0 0.0
2017-Feb-25 23:33N 40°41' W 074°09'0 0.0
2017-Feb-25 22:33N 40°41' W 074°09'0 0.0
2017-Feb-25 21:33N 40°41' W 074°09'0 0.0
2017-Feb-25 20:33N 40°41' W 074°09'0 0.0
2017-Feb-25 19:33N 40°41' W 074°09'0 0.3
2017-Feb-25 18:33N 40°41' W 074°09'0 0.3
2017-Feb-25 17:33N 40°41' W 074°09'0 0.0
2017-Feb-25 16:33N 40°41' W 074°09'2 1.6
2017-Feb-25 15:33N 40°40' W 074°08'3 2.9
2017-Feb-25 14:33N 40°39' W 074°05'1 1.1
2017-Feb-25 13:33N 40°40' W 074°05'0 0.0
2017-Feb-25 12:33N 40°40' W 074°05'0 0.0
2017-Feb-25 11:33N 40°40' W 074°05'0 0.0
2017-Feb-25 10:33N 40°40' W 074°05'0 0.0
2017-Feb-25 09:33N 40°40' W 074°05'0 0.0
2017-Feb-25 08:33N 40°40' W 074°05'0 0.0
2017-Feb-25 07:33N 40°40' W 074°05'2 1.5
2017-Feb-25 06:33N 40°39' W 074°06'4 4.1
2017-Feb-25 05:33N 40°40' W 074°01'1 0.6
2017-Feb-25 04:33N 40°40' W 074°00'0 0.0
2017-Feb-25 03:33N 40°40' W 074°00'0 0.0
2017-Feb-25 02:33N 40°40' W 074°00'0 0.0
2017-Feb-25 01:33N 40°40' W 074°00'1 1.4
2017-Feb-25 00:33N 40°41' W 074°00'9 8.5
2017-Feb-24 23:33N 40°39' W 074°11'3 3.1
2017-Feb-24 22:33N 40°36' W 074°12'0 0.0
2017-Feb-24 21:33N 40°36' W 074°12'3 2.6
2017-Feb-24 20:33N 40°38' W 074°12'0 0.0
2017-Feb-24 19:33N 40°38' W 074°12'0 0.0
2017-Feb-24 18:33N 40°38' W 074°12'0 0.0
2017-Feb-24 17:33N 40°38' W 074°12'0 0.0
2017-Feb-24 16:33N 40°38' W 074°12'3 3.2
2017-Feb-24 15:33N 40°39' W 074°08'6 5.6
2017-Feb-24 14:33N 40°40' W 074°00'3 3.3
2017-Feb-24 13:33N 40°38' W 074°04'0 0.2
2017-Feb-24 12:33N 40°39' W 074°04'0 0.0
2017-Feb-24 11:33N 40°39' W 074°04'0 0.0
2017-Feb-24 10:33N 40°39' W 074°04'0 0.0
2017-Feb-24 09:33N 40°38' W 074°04'2 2.1
2017-Feb-24 08:33N 40°39' W 074°07'3 2.8
2017-Feb-24 07:34N 40°41' W 074°08'0 0.4
2017-Feb-24 06:33N 40°42' W 074°08'0 0.0
2017-Feb-24 05:33N 40°42' W 074°08'0 0.0
2017-Feb-24 04:33N 40°42' W 074°08'0 0.0
2017-Feb-24 03:33N 40°42' W 074°08'0 0.0
2017-Feb-24 02:33N 40°42' W 074°08'1 0.6
2017-Feb-24 01:33N 40°41' W 074°08'5 5.3
2017-Feb-24 00:33N 40°39' W 074°01'1 1.2
2017-Feb-23 23:33N 40°40' W 074°00'1 0.7
2017-Feb-23 22:33N 40°40' W 074°01'0 0.0
2017-Feb-23 21:33N 40°40' W 074°01'0 0.0
2017-Feb-23 20:33N 40°40' W 074°01'0 0.0
2017-Feb-23 19:33N 40°40' W 074°01'6 5.9
2017-Feb-23 18:33N 40°45' W 073°58'8 8.0
2017-Feb-23 17:32N 40°48' W 073°48'1 1.2
2017-Feb-23 16:33N 40°49' W 073°47'0 0.0
2017-Feb-23 15:32N 40°49' W 073°47'0 0.0
2017-Feb-23 14:16N 40°49' W 073°47'0 0.0
2017-Feb-23 13:24N 40°49' W 073°47'0 0.0
2017-Feb-23 12:22N 40°49' W 073°47'0 0.0
2017-Feb-23 11:33N 40°49' W 073°47'0 0.0
2017-Feb-23 09:31N 40°49' W 073°47'0 0.0
2017-Feb-23 08:33N 40°49' W 073°47'0 0.0
2017-Feb-23 07:33N 40°49' W 073°47'0 0.0
2017-Feb-23 06:29N 40°49' W 073°47'0 0.0
2017-Feb-23 05:33N 40°49' W 073°47'0 0.0
2017-Feb-23 04:33N 40°49' W 073°47'0 0.0
2017-Feb-23 03:33N 40°49' W 073°47'0 0.0
2017-Feb-23 02:33N 40°49' W 073°47'0 0.0
2017-Feb-23 01:31N 40°49' W 073°47'0 0.0
2017-Feb-23 00:33N 40°49' W 073°47'0 0.0
2017-Feb-22 23:33N 40°49' W 073°47'0 0.0
2017-Feb-22 22:31N 40°49' W 073°47'0 0.0
2017-Feb-22 21:32N 40°49' W 073°47'0 0.0
2017-Feb-22 20:28N 40°49' W 073°47'6 6.0
2017-Feb-22 19:33N 40°53' W 073°42'133 9.2
2017-Feb-22 05:09N 41°30' W 070°52'6 9.3
2017-Feb-22 04:32N 41°33' W 070°46'9 8.9
2017-Feb-22 03:34N 41°41' W 070°41'11 9.3
2017-Feb-22 02:23N 41°47' W 070°29'7 6.9
2017-Feb-22 01:25N 41°53' W 070°27'10 9.2
2017-Feb-22 00:17N 42°04' W 070°29'7 9.3
2017-Feb-21 23:33N 42°11' W 070°28'9 9.3
2017-Feb-21 22:33N 42°20' W 070°26'9 9.4
2017-Feb-21 21:33N 42°29' W 070°25'9 9.4
2017-Feb-21 20:33N 42°39' W 070°23'9 9.3
2017-Feb-21 19:34N 42°48' W 070°21'12 0.3
2017-Feb-20 07:14N 42°59' W 070°17'5 7.0
2017-Feb-20 06:33N 42°55' W 070°18'7 7.1
2017-Feb-20 05:32N 42°47' W 070°20'7 7.0
2017-Feb-20 04:33N 42°41' W 070°21'7 7.0
2017-Feb-20 03:33N 42°34' W 070°22'7 7.2
2017-Feb-20 02:33N 42°27' W 070°24'7 7.3
2017-Feb-20 01:33N 42°19' W 070°25'7 7.2
2017-Feb-20 00:33N 42°12' W 070°26'173 6.4
2017-Feb-18 21:18N 40°31' W 073°34'5 7.2
2017-Feb-18 20:33N 40°29' W 073°40'7 7.4
2017-Feb-18 19:33N 40°24' W 073°48'42 7.0
2017-Feb-18 13:30N 39°43' W 074°00'7 7.0
2017-Feb-18 12:29N 39°36' W 074°04'7 7.1
2017-Feb-18 11:27N 39°30' W 074°09'14 7.1
2017-Feb-18 09:31N 39°18' W 074°18'25 7.4
2017-Feb-18 06:10N 39°00' W 074°40'5 7.4
2017-Feb-18 05:28N 38°56' W 074°44'18 4.5
2017-Feb-18 01:29N 38°57' W 075°07'4 3.8
2017-Feb-18 00:32N 39°01' W 075°09'8 8.6
2017-Feb-17 23:33N 39°08' W 075°14'9 8.7
2017-Feb-17 22:33N 39°15' W 075°20'8 8.3
2017-Feb-17 21:33N 39°22' W 075°27'7 6.8
2017-Feb-17 20:33N 39°27' W 075°33'5 5.4
2017-Feb-17 19:33N 39°32' W 075°33'5 5.4
2017-Feb-17 18:33N 39°37' W 075°35'7 6.5
2017-Feb-17 17:33N 39°43' W 075°31'8 7.9
2017-Feb-17 16:33N 39°49' W 075°24'9 8.6
2017-Feb-17 15:33N 39°52' W 075°13'3 3.1
2017-Feb-17 14:33N 39°55' W 075°12'0 0.0
2017-Feb-17 13:33N 39°55' W 075°12'3 3.0
2017-Feb-17 12:33N 39°53' W 075°09'2 2.4
2017-Feb-17 11:33N 39°54' W 075°12'0 0.0
2017-Feb-17 10:33N 39°54' W 075°12'0 0.0
2017-Feb-17 09:33N 39°54' W 075°12'0 0.0
2017-Feb-17 08:33N 39°54' W 075°12'0 0.0
2017-Feb-17 07:33N 39°54' W 075°12'0 0.0
2017-Feb-17 06:33N 39°54' W 075°12'0 0.0
2017-Feb-17 05:33N 39°54' W 075°12'0 0.0
2017-Feb-17 04:33N 39°54' W 075°12'0 0.0
2017-Feb-17 03:33N 39°54' W 075°12'0 0.0
2017-Feb-17 02:34N 39°54' W 075°12'0 0.0
2017-Feb-17 01:33N 39°54' W 075°12'0 0.0
2017-Feb-17 00:33N 39°54' W 075°12'0 0.0
2017-Feb-16 23:33N 39°54' W 075°12'0 0.0
2017-Feb-16 22:33N 39°54' W 075°12'0 0.0
2017-Feb-16 21:33N 39°54' W 075°12'2 1.9
2017-Feb-16 20:34N 39°53' W 075°10'6 6.4
2017-Feb-16 19:33N 39°58' W 075°06'3 3.4
2017-Feb-16 18:33N 39°55' W 075°08'2 1.7
2017-Feb-16 17:34N 39°54' W 075°08'3 3.2
2017-Feb-16 16:33N 39°55' W 075°12'1 1.4
2017-Feb-16 15:33N 39°54' W 075°12'1 1.0
2017-Feb-16 14:33N 39°53' W 075°11'3 2.5
2017-Feb-16 13:34N 39°54' W 075°08'0 0.0
2017-Feb-16 12:34N 39°54' W 075°08'0 0.4
2017-Feb-16 11:33N 39°54' W 075°08'0 0.0
2017-Feb-16 10:34N 39°54' W 075°08'0 0.0
2017-Feb-16 09:33N 39°54' W 075°08'0 0.0
2017-Feb-16 08:34N 39°54' W 075°08'1 1.5
2017-Feb-16 07:34N 39°53' W 075°09'  
Track history (hours):
 
Tides and Currents Weather Stations Pressure Air Temp Water Temp Dewpoint Dewpoint Depression Visibility Wind Speed Wind Dir Waves Ship Positions

Nanticoke

Owner: Vane Line Bunkering, Baltimore, MD. More information available from US FCC via Universal Licensing System and Coast Guard Vessel Documentation Center.

Last reported at 2017-Feb-26 07:33 UTC. Time now 2017-Feb-26 07:40 UTC.
Position N 40°40' W 074°05'.

Length 34 m; draft 4.7 m.

Type: Towing. MMSI: 367023480.

Date/timePositionNaut miles runAvg speedWind from/ knotsBaromVisibWave heightAir tempDewpointWater temp
2017-Feb-26 07:33N 40°40' W 074°05'0 0.0
2017-Feb-26 06:33N 40°40' W 074°05'0 0.0
2017-Feb-26 05:33N 40°40' W 074°05'0 0.0
2017-Feb-26 04:33N 40°40' W 074°05'0 0.0
2017-Feb-26 03:33N 40°40' W 074°05'2 1.7
2017-Feb-26 02:33N 40°40' W 074°03'4 4.2
2017-Feb-26 01:33N 40°41' W 074°08'0 0.4
2017-Feb-26 00:33N 40°41' W 074°09'0 0.0
2017-Feb-25 23:33N 40°41' W 074°09'0 0.0
2017-Feb-25 22:33N 40°41' W 074°09'0 0.0
2017-Feb-25 21:33N 40°41' W 074°09'0 0.0
2017-Feb-25 20:33N 40°41' W 074°09'0 0.0
2017-Feb-25 19:33N 40°41' W 074°09'0 0.3
2017-Feb-25 18:33N 40°41' W 074°09'0 0.3
2017-Feb-25 17:33N 40°41' W 074°09'0 0.0
2017-Feb-25 16:33N 40°41' W 074°09'2 1.6
2017-Feb-25 15:33N 40°40' W 074°08'3 2.9
2017-Feb-25 14:33N 40°39' W 074°05'1 1.1
2017-Feb-25 13:33N 40°40' W 074°05'0 0.0
2017-Feb-25 12:33N 40°40' W 074°05'0 0.0
2017-Feb-25 11:33N 40°40' W 074°05'0 0.0
2017-Feb-25 10:33N 40°40' W 074°05'0 0.0
2017-Feb-25 09:33N 40°40' W 074°05'0 0.0
2017-Feb-25 08:33N 40°40' W 074°05'0 0.0
2017-Feb-25 07:33N 40°40' W 074°05'2 1.5
2017-Feb-25 06:33N 40°39' W 074°06'4 4.1
2017-Feb-25 05:33N 40°40' W 074°01'1 0.6
2017-Feb-25 04:33N 40°40' W 074°00'0 0.0
2017-Feb-25 03:33N 40°40' W 074°00'0 0.0
2017-Feb-25 02:33N 40°40' W 074°00'0 0.0
2017-Feb-25 01:33N 40°40' W 074°00'1 1.4
2017-Feb-25 00:33N 40°41' W 074°00'9 8.5
2017-Feb-24 23:33N 40°39' W 074°11'3 3.1
2017-Feb-24 22:33N 40°36' W 074°12'0 0.0
2017-Feb-24 21:33N 40°36' W 074°12'3 2.6
2017-Feb-24 20:33N 40°38' W 074°12'0 0.0
2017-Feb-24 19:33N 40°38' W 074°12'0 0.0
2017-Feb-24 18:33N 40°38' W 074°12'0 0.0
2017-Feb-24 17:33N 40°38' W 074°12'0 0.0
2017-Feb-24 16:33N 40°38' W 074°12'3 3.2
2017-Feb-24 15:33N 40°39' W 074°08'6 5.6
2017-Feb-24 14:33N 40°40' W 074°00'3 3.3
2017-Feb-24 13:33N 40°38' W 074°04'0 0.2
2017-Feb-24 12:33N 40°39' W 074°04'0 0.0
2017-Feb-24 11:33N 40°39' W 074°04'0 0.0
2017-Feb-24 10:33N 40°39' W 074°04'0 0.0
2017-Feb-24 09:33N 40°38' W 074°04'2 2.1
2017-Feb-24 08:33N 40°39' W 074°07'3 2.8
2017-Feb-24 07:34N 40°41' W 074°08'0 0.4
2017-Feb-24 06:33N 40°42' W 074°08'0 0.0
2017-Feb-24 05:33N 40°42' W 074°08'0 0.0
2017-Feb-24 04:33N 40°42' W 074°08'0 0.0
2017-Feb-24 03:33N 40°42' W 074°08'0 0.0
2017-Feb-24 02:33N 40°42' W 074°08'1 0.6
2017-Feb-24 01:33N 40°41' W 074°08'5 5.3
2017-Feb-24 00:33N 40°39' W 074°01'1 1.2
2017-Feb-23 23:33N 40°40' W 074°00'1 0.7
2017-Feb-23 22:33N 40°40' W 074°01'0 0.0
2017-Feb-23 21:33N 40°40' W 074°01'0 0.0
2017-Feb-23 20:33N 40°40' W 074°01'0 0.0
2017-Feb-23 19:33N 40°40' W 074°01'6 5.9
2017-Feb-23 18:33N 40°45' W 073°58'8 8.0
2017-Feb-23 17:32N 40°48' W 073°48'1 1.2
2017-Feb-23 16:33N 40°49' W 073°47'0 0.0
2017-Feb-23 15:32N 40°49' W 073°47'0 0.0
2017-Feb-23 14:16N 40°49' W 073°47'0 0.0
2017-Feb-23 13:24N 40°49' W 073°47'0 0.0
2017-Feb-23 12:22N 40°49' W 073°47'0 0.0
2017-Feb-23 11:33N 40°49' W 073°47'0 0.0
2017-Feb-23 09:31N 40°49' W 073°47'0 0.0
2017-Feb-23 08:33N 40°49' W 073°47'0 0.0
2017-Feb-23 07:33N 40°49' W 073°47'0 0.0
2017-Feb-23 06:29N 40°49' W 073°47'0 0.0
2017-Feb-23 05:33N 40°49' W 073°47'0 0.0
2017-Feb-23 04:33N 40°49' W 073°47'0 0.0
2017-Feb-23 03:33N 40°49' W 073°47'0 0.0
2017-Feb-23 02:33N 40°49' W 073°47'0 0.0
2017-Feb-23 01:31N 40°49' W 073°47'0 0.0
2017-Feb-23 00:33N 40°49' W 073°47'0 0.0
2017-Feb-22 23:33N 40°49' W 073°47'0 0.0
2017-Feb-22 22:31N 40°49' W 073°47'0 0.0
2017-Feb-22 21:32N 40°49' W 073°47'0 0.0
2017-Feb-22 20:28N 40°49' W 073°47'6 6.0
2017-Feb-22 19:33N 40°53' W 073°42'133 9.2
2017-Feb-22 05:09N 41°30' W 070°52'6 9.3
2017-Feb-22 04:32N 41°33' W 070°46'9 8.9
2017-Feb-22 03:34N 41°41' W 070°41'11 9.3
2017-Feb-22 02:23N 41°47' W 070°29'7 6.9
2017-Feb-22 01:25N 41°53' W 070°27'10 9.2
2017-Feb-22 00:17N 42°04' W 070°29'7 9.3
2017-Feb-21 23:33N 42°11' W 070°28'9 9.3
2017-Feb-21 22:33N 42°20' W 070°26'9 9.4
2017-Feb-21 21:33N 42°29' W 070°25'9 9.4
2017-Feb-21 20:33N 42°39' W 070°23'9 9.3
2017-Feb-21 19:34N 42°48' W 070°21'12 0.3
2017-Feb-20 07:14N 42°59' W 070°17'5 7.0
2017-Feb-20 06:33N 42°55' W 070°18'7 7.1
2017-Feb-20 05:32N 42°47' W 070°20'7 7.0
2017-Feb-20 04:33N 42°41' W 070°21'7 7.0
2017-Feb-20 03:33N 42°34' W 070°22'7 7.2
2017-Feb-20 02:33N 42°27' W 070°24'7 7.3
2017-Feb-20 01:33N 42°19' W 070°25'7 7.2
2017-Feb-20 00:33N 42°12' W 070°26'173 6.4
2017-Feb-18 21:18N 40°31' W 073°34'5 7.2
2017-Feb-18 20:33N 40°29' W 073°40'7 7.4
2017-Feb-18 19:33N 40°24' W 073°48'42 7.0
2017-Feb-18 13:30N 39°43' W 074°00'7 7.0
2017-Feb-18 12:29N 39°36' W 074°04'7 7.1
2017-Feb-18 11:27N 39°30' W 074°09'14 7.1
2017-Feb-18 09:31N 39°18' W 074°18'25 7.4
2017-Feb-18 06:10N 39°00' W 074°40'5 7.4
2017-Feb-18 05:28N 38°56' W 074°44'18 4.5
2017-Feb-18 01:29N 38°57' W 075°07'4 3.8
2017-Feb-18 00:32N 39°01' W 075°09'8 8.6
2017-Feb-17 23:33N 39°08' W 075°14'9 8.7
2017-Feb-17 22:33N 39°15' W 075°20'8 8.3
2017-Feb-17 21:33N 39°22' W 075°27'7 6.8
2017-Feb-17 20:33N 39°27' W 075°33'5 5.4
2017-Feb-17 19:33N 39°32' W 075°33'5 5.4
2017-Feb-17 18:33N 39°37' W 075°35'7 6.5
2017-Feb-17 17:33N 39°43' W 075°31'8 7.9
2017-Feb-17 16:33N 39°49' W 075°24'9 8.6
2017-Feb-17 15:33N 39°52' W 075°13'3 3.1
2017-Feb-17 14:33N 39°55' W 075°12'0 0.0
2017-Feb-17 13:33N 39°55' W 075°12'3 3.0
2017-Feb-17 12:33N 39°53' W 075°09'2 2.4
2017-Feb-17 11:33N 39°54' W 075°12'0 0.0
2017-Feb-17 10:33N 39°54' W 075°12'0 0.0
2017-Feb-17 09:33N 39°54' W 075°12'0 0.0
2017-Feb-17 08:33N 39°54' W 075°12'0 0.0
2017-Feb-17 07:33N 39°54' W 075°12'0 0.0
2017-Feb-17 06:33N 39°54' W 075°12'0 0.0
2017-Feb-17 05:33N 39°54' W 075°12'0 0.0
2017-Feb-17 04:33N 39°54' W 075°12'0 0.0
2017-Feb-17 03:33N 39°54' W 075°12'0 0.0
2017-Feb-17 02:34N 39°54' W 075°12'0 0.0
2017-Feb-17 01:33N 39°54' W 075°12'0 0.0
2017-Feb-17 00:33N 39°54' W 075°12'0 0.0
2017-Feb-16 23:33N 39°54' W 075°12'0 0.0
2017-Feb-16 22:33N 39°54' W 075°12'0 0.0
2017-Feb-16 21:33N 39°54' W 075°12'2 1.9
2017-Feb-16 20:34N 39°53' W 075°10'6 6.4
2017-Feb-16 19:33N 39°58' W 075°06'3 3.4
2017-Feb-16 18:33N 39°55' W 075°08'2 1.7
2017-Feb-16 17:34N 39°54' W 075°08'3 3.2
2017-Feb-16 16:33N 39°55' W 075°12'1 1.4
2017-Feb-16 15:33N 39°54' W 075°12'1 1.0
2017-Feb-16 14:33N 39°53' W 075°11'3 2.5
2017-Feb-16 13:34N 39°54' W 075°08'0 0.0
2017-Feb-16 12:34N 39°54' W 075°08'0 0.4
2017-Feb-16 11:33N 39°54' W 075°08'0 0.0
2017-Feb-16 10:34N 39°54' W 075°08'0 0.0
2017-Feb-16 09:33N 39°54' W 075°08'0 0.0
2017-Feb-16 08:34N 39°54' W 075°08'1 1.5
2017-Feb-16 07:34N 39°53' W 075°09'  

Dump ship's entire track history